createdAt,value
2022-10-23T00:01:23.374Z,81.08
2022-10-23T00:03:53.116Z,81.97
2022-10-23T00:06:20.833Z,82.87
2022-10-23T00:08:48.997Z,82.92
2022-10-23T00:11:21.390Z,83.44
2022-10-23T00:13:49.485Z,82.61
2022-10-23T00:16:16.783Z,82.04
2022-10-23T00:18:44.219Z,81.03
2022-10-23T00:21:13.893Z,80.18
2022-10-23T00:23:41.660Z,80.37
2022-10-23T00:26:11.326Z,80.06
2022-10-23T00:28:38.548Z,80.55
2022-10-23T00:31:06.755Z,80.03
2022-10-23T00:33:34.167Z,80.18
2022-10-23T00:36:04.534Z,79.57
2022-10-23T00:38:31.738Z,80.03
2022-10-23T00:40:58.894Z,79.50
2022-10-23T00:43:28.474Z,79.53
2022-10-23T00:45:56.230Z,79.89
2022-10-23T00:48:23.721Z,80.18
2022-10-23T00:50:51.049Z,80.15
2022-10-23T00:53:19.361Z,80.05
2022-10-23T00:55:48.690Z,80.25
2022-10-23T00:58:18.358Z,80.56
2022-10-23T01:00:47.597Z,80.94
2022-10-23T01:03:16.187Z,80.39
2022-10-23T01:06:14.523Z,79.88
2022-10-23T01:08:54.391Z,80.36
2022-10-23T01:11:43.659Z,80.48
2022-10-23T01:14:16.733Z,79.52
2022-10-23T01:16:56.855Z,79.53
2022-10-23T01:19:33.183Z,80.04
2022-10-23T01:22:16.897Z,79.17
2022-10-23T01:24:58.615Z,79.61
2022-10-23T01:27:27.810Z,79.30
2022-10-23T01:30:01.006Z,79.03
2022-10-23T01:32:55.200Z,78.98
2022-10-23T01:35:41.165Z,80.51
2022-10-23T01:38:20.690Z,80.48
2022-10-23T01:40:57.655Z,80.15
2022-10-23T01:43:29.734Z,79.89
2022-10-23T01:46:01.368Z,80.16
2022-10-23T01:48:30.227Z,81.02
2022-10-23T01:51:00.532Z,81.05
2022-10-23T01:53:30.720Z,80.64
2022-10-23T01:55:59.296Z,79.79
2022-10-23T01:58:28.227Z,78.93
2022-10-23T02:00:58.466Z,78.60
2022-10-23T02:03:27.294Z,78.83
2022-10-23T02:05:54.955Z,78.98
2022-10-23T02:08:22.396Z,79.31
2022-10-23T02:10:55.004Z,78.88
2022-10-23T02:13:22.187Z,78.96
2022-10-23T02:16:17.941Z,79.67
2022-10-23T02:19:03.496Z,80.28
2022-10-23T02:21:36.255Z,80.90
2022-10-23T02:24:07.763Z,80.36
2022-10-23T02:26:44.102Z,80.60
2022-10-23T02:29:16.032Z,80.55
2022-10-23T02:31:45.976Z,80.45
2022-10-23T02:34:13.265Z,80.92
2022-10-23T02:36:41.044Z,80.48
2022-10-23T02:39:08.543Z,79.97
2022-10-23T02:41:53.691Z,80.73
2022-10-23T02:44:33.193Z,80.88
2022-10-23T02:47:14.428Z,80.64
2022-10-23T02:49:47.465Z,80.51
2022-10-23T02:52:29.413Z,81.30
2022-10-23T02:55:11.062Z,81.92
2022-10-23T02:58:08.937Z,82.69
2022-10-23T03:00:44.156Z,83.77
2022-10-23T03:03:16.174Z,84.42
2022-10-23T03:05:44.973Z,84.53
2022-10-23T03:08:14.666Z,84.11
2022-10-23T03:10:42.705Z,84.31
2022-10-23T03:13:10.913Z,85.94
2022-10-23T03:15:42.942Z,86.09
2022-10-23T03:18:13.473Z,84.98
2022-10-23T03:20:45.132Z,83.72
2022-10-23T03:23:13.950Z,84.93
2022-10-23T03:25:41.217Z,85.95
2022-10-23T03:28:08.901Z,85.53
2022-10-23T03:30:36.592Z,85.69
2022-10-23T03:33:03.917Z,85.48
2022-10-23T03:35:32.095Z,85.82
2022-10-23T03:37:59.326Z,85.96
2022-10-23T03:40:27.119Z,86.63
2022-10-23T03:42:54.343Z,87.11
2022-10-23T03:45:21.685Z,86.90
2022-10-23T03:47:50.803Z,87.04
2022-10-23T03:50:18.994Z,87.16
2022-10-23T03:52:46.383Z,87.83
2022-10-23T03:55:14.816Z,87.14
2022-10-23T03:57:42.156Z,86.58
2022-10-23T04:00:13.161Z,86.29
2022-10-23T04:02:48.094Z,87.03
2022-10-23T04:05:16.600Z,87.62
2022-10-23T04:07:52.991Z,87.59
2022-10-23T04:10:20.397Z,87.28
2022-10-23T04:12:47.626Z,86.85
2022-10-23T04:15:14.940Z,85.87
2022-10-23T04:17:45.515Z,85.21
2022-10-23T04:20:13.361Z,85.50
2022-10-23T04:22:40.887Z,85.64
2022-10-23T04:25:08.698Z,85.11
2022-10-23T04:27:35.992Z,85.16
2022-10-23T04:30:03.988Z,86.57
2022-10-23T04:32:31.468Z,87.06
2022-10-23T04:34:58.716Z,86.52
2022-10-23T04:37:26.081Z,86.60
2022-10-23T04:39:53.375Z,86.35
2022-10-23T04:42:20.676Z,87.48
2022-10-23T04:44:48.183Z,87.37
2022-10-23T04:47:15.480Z,86.19
2022-10-23T04:50:08.921Z,87.14
2022-10-23T04:52:57.059Z,87.39
2022-10-23T04:55:55.413Z,87.05
2022-10-23T04:58:35.232Z,86.52
2022-10-23T05:01:02.826Z,85.33
2022-10-23T05:03:30.208Z,84.52
2022-10-23T05:05:57.717Z,85.61
2022-10-23T05:08:35.912Z,87.06
2022-10-23T05:11:08.984Z,86.99
2022-10-23T05:13:41.878Z,87.35
2022-10-23T05:16:09.370Z,88.26
2022-10-23T05:18:42.811Z,89.14
2022-10-23T05:21:13.887Z,89.51
2022-10-23T05:23:44.528Z,89.32
2022-10-23T05:26:13.783Z,88.57
2022-10-23T05:28:43.750Z,87.98
2022-10-23T05:31:14.987Z,87.34
2022-10-23T05:33:45.751Z,87.73
2022-10-23T05:36:13.557Z,88.14
2022-10-23T05:38:41.173Z,87.55
2022-10-23T05:41:14.907Z,87.54
2022-10-23T05:43:43.385Z,87.60
2022-10-23T05:46:30.543Z,88.80
2022-10-23T05:49:27.037Z,88.53
2022-10-23T05:52:14.304Z,88.42
2022-10-23T05:55:01.930Z,89.45
2022-10-23T05:57:47.552Z,88.79
2022-10-23T06:00:18.313Z,89.04
2022-10-23T06:02:54.375Z,89.95
2022-10-23T06:05:31.836Z,89.48
2022-10-23T06:08:16.978Z,88.92
2022-10-23T06:10:44.475Z,89.54
2022-10-23T06:13:12.640Z,89.96
2022-10-23T06:15:40.082Z,89.78
2022-10-23T06:18:26.633Z,90.82
2022-10-23T06:21:02.401Z,91.00
2022-10-23T06:23:34.539Z,92.06
2022-10-23T06:26:05.545Z,91.69
2022-10-23T06:28:40.933Z,91.36
2022-10-23T06:31:13.750Z,90.77
2022-10-23T06:33:41.258Z,90.84
2022-10-23T06:36:10.733Z,89.90
2022-10-23T06:38:40.630Z,89.83
2022-10-23T06:41:14.058Z,90.48
2022-10-23T06:43:41.760Z,90.79
2022-10-23T06:46:18.777Z,89.82
2022-10-23T06:49:04.895Z,89.47
2022-10-23T06:51:38.402Z,89.74
2022-10-23T06:54:10.972Z,89.10
2022-10-23T06:56:50.647Z,88.96
2022-10-23T06:59:22.166Z,89.90
2022-10-23T07:01:51.826Z,89.20
2022-10-23T07:04:19.217Z,88.91
2022-10-23T07:06:46.512Z,89.67
2022-10-23T07:09:14.610Z,90.24
2022-10-23T07:12:07.855Z,90.78
2022-10-23T07:14:43.964Z,90.46
2022-10-23T07:17:12.082Z,91.68
2022-10-23T07:19:39.306Z,90.79
2022-10-23T07:22:14.924Z,90.64
2022-10-23T07:24:47.397Z,90.67
2022-10-23T07:27:28.056Z,89.94
2022-10-23T07:29:57.601Z,89.89
2022-10-23T07:32:28.577Z,90.21
2022-10-23T07:38:06.895Z,90.23
2022-10-23T07:40:37.983Z,90.24
2022-10-23T07:43:07.237Z,90.75
2022-10-23T07:45:35.288Z,90.40
2022-10-23T07:48:09.520Z,90.53
2022-10-23T07:51:08.010Z,90.16
2022-10-23T07:53:39.572Z,90.79
2022-10-23T07:56:29.696Z,90.60
2022-10-23T07:59:16.351Z,89.85
2022-10-23T08:01:51.620Z,89.45
2022-10-23T08:04:21.515Z,89.66
2022-10-23T08:07:01.298Z,89.05
2022-10-23T08:09:32.062Z,87.99
2022-10-23T08:12:00.837Z,88.17
2022-10-23T08:14:28.707Z,89.78
2022-10-23T08:16:56.643Z,88.78
2022-10-23T08:19:55.916Z,87.92
2022-10-23T08:22:25.116Z,86.89
2022-10-23T08:24:52.333Z,86.17
2022-10-23T08:27:19.995Z,85.75
2022-10-23T08:29:48.362Z,85.86
2022-10-23T08:32:15.553Z,85.57
2022-10-23T08:34:51.963Z,86.10
2022-10-23T08:37:19.338Z,86.18
2022-10-23T08:39:50.100Z,86.05
2022-10-23T08:42:27.059Z,84.92
2022-10-23T08:45:07.599Z,83.40
2022-10-23T08:47:45.923Z,84.31
2022-10-23T08:50:37.047Z,84.71
2022-10-23T08:53:16.589Z,84.07
2022-10-23T08:55:47.305Z,84.11
2022-10-23T08:58:39.203Z,82.56
2022-10-23T09:01:44.371Z,81.85
2022-10-23T09:04:13.742Z,81.38
2022-10-23T09:07:03.599Z,80.06
2022-10-23T09:09:49.728Z,80.61
2022-10-23T09:12:21.528Z,80.28
2022-10-23T09:15:19.686Z,80.10
2022-10-23T09:17:48.170Z,79.42
2022-10-23T09:20:21.637Z,78.77
2022-10-23T09:22:50.926Z,79.36
2022-10-23T09:25:25.161Z,79.70
2022-10-23T09:27:56.700Z,79.54
2022-10-23T09:30:33.079Z,78.92
2022-10-23T09:33:01.284Z,79.38
2022-10-23T09:35:30.330Z,78.96
2022-10-23T09:37:57.873Z,78.01
2022-10-23T09:40:28.997Z,77.48
2022-10-23T09:43:17.741Z,76.31
2022-10-23T09:45:56.929Z,75.70
2022-10-23T09:48:24.182Z,75.48
2022-10-23T09:50:54.429Z,75.40
2022-10-23T09:53:31.697Z,76.79
2022-10-23T09:56:11.664Z,74.16
2022-10-23T09:58:43.720Z,74.30
2022-10-23T10:01:32.783Z,72.93
2022-10-23T10:04:19.654Z,74.46
2022-10-23T10:06:57.371Z,72.11
2022-10-23T10:09:24.663Z,73.53
2022-10-23T10:11:54.581Z,71.88
2022-10-23T10:14:44.066Z,70.45
2022-10-23T10:17:23.321Z,72.41
2022-10-23T10:20:03.795Z,69.72
2022-10-23T10:22:46.064Z,70.05
2022-10-23T10:25:52.134Z,70.05
2022-10-23T10:28:46.897Z,68.82
2022-10-23T10:31:24.129Z,69.55
2022-10-23T10:34:19.823Z,70.59
2022-10-23T10:36:51.589Z,69.38
2022-10-23T10:39:28.238Z,68.77
2022-10-23T10:42:17.174Z,68.08
2022-10-23T10:44:56.137Z,68.93
2022-10-23T10:47:32.017Z,67.42
2022-10-23T10:50:02.798Z,68.32
2022-10-23T10:53:24.008Z,68.39
2022-10-23T10:55:54.023Z,66.24
2022-10-23T10:58:28.413Z,66.28
2022-10-23T11:01:00.783Z,65.85
2022-10-23T11:03:39.832Z,65.69
2022-10-23T11:06:13.715Z,65.87
2022-10-23T11:08:56.220Z,66.11
2022-10-23T11:11:38.246Z,63.85
2022-10-23T11:14:37.822Z,64.74
2022-10-23T11:17:12.118Z,64.22
2022-10-23T11:19:48.689Z,63.45
2022-10-23T11:22:28.447Z,63.54
2022-10-23T11:24:58.542Z,63.22
2022-10-23T11:27:46.271Z,63.59
2022-10-23T11:30:31.283Z,63.48
2022-10-23T11:33:01.502Z,63.83
2022-10-23T11:35:37.632Z,62.33
2022-10-23T11:38:23.888Z,61.88
2022-10-23T11:40:55.747Z,60.51
2022-10-23T11:43:35.718Z,61.20
2022-10-23T11:46:14.953Z,61.76
2022-10-23T11:48:44.071Z,62.00
2022-10-23T11:51:37.141Z,60.48
2022-10-23T11:54:10.084Z,60.77
2022-10-23T11:56:38.535Z,60.28
2022-10-23T11:59:23.994Z,60.42
2022-10-23T12:01:52.305Z,59.98
2022-10-23T12:04:26.750Z,59.99
2022-10-23T12:06:59.291Z,59.57
2022-10-23T12:09:45.167Z,59.64
2022-10-23T12:12:12.323Z,59.82
2022-10-23T12:14:44.006Z,59.58
2022-10-23T12:17:23.611Z,60.06
2022-10-23T12:20:01.395Z,59.25
2022-10-23T12:22:39.120Z,59.28
2022-10-23T12:25:14.144Z,59.50
2022-10-23T12:28:00.180Z,59.36
2022-10-23T12:30:38.967Z,58.81
2022-10-23T12:33:27.712Z,59.10
2022-10-23T12:36:28.152Z,58.48
2022-10-23T12:38:58.594Z,58.33
2022-10-23T12:41:29.935Z,58.65
2022-10-23T12:44:01.333Z,58.25
2022-10-23T12:46:37.095Z,57.64
2022-10-23T12:49:18.632Z,57.09
2022-10-23T12:51:46.469Z,57.14
2022-10-23T12:54:18.864Z,56.85
2022-10-23T12:56:46.835Z,57.19
2022-10-23T12:59:21.300Z,57.38
2022-10-23T13:01:52.825Z,56.16
2022-10-23T13:04:29.124Z,56.33
2022-10-23T13:06:58.553Z,55.98
2022-10-23T13:09:33.096Z,55.93
2022-10-23T13:13:06.505Z,57.01
2022-10-23T13:15:41.944Z,56.74
2022-10-23T13:18:11.627Z,57.40
2022-10-23T13:20:42.451Z,57.37
2022-10-23T13:23:18.849Z,57.74
2022-10-23T13:26:15.843Z,57.96
2022-10-23T13:28:44.886Z,58.07
2022-10-23T13:31:12.387Z,57.99
2022-10-23T13:33:41.752Z,56.99
2022-10-23T13:36:14.527Z,57.24
2022-10-23T13:38:43.684Z,56.91
2022-10-23T13:41:15.190Z,58.00
2022-10-23T13:43:43.446Z,58.49
2022-10-23T13:46:25.606Z,58.58
2022-10-23T13:48:53.043Z,58.85
2022-10-23T13:51:23.022Z,58.53
2022-10-23T13:53:52.581Z,58.71
2022-10-23T13:56:21.426Z,58.21
2022-10-23T13:58:49.177Z,59.14
2022-10-23T14:01:29.869Z,59.64
2022-10-23T14:03:57.932Z,60.07
2022-10-23T14:06:25.269Z,59.98
2022-10-23T14:08:52.483Z,60.05
2022-10-23T14:11:20.250Z,60.57
2022-10-23T14:13:48.164Z,60.16
2022-10-23T14:16:18.993Z,60.18
2022-10-23T14:18:46.280Z,59.96
2022-10-23T14:21:15.357Z,61.00
2022-10-23T14:23:42.687Z,60.68
2022-10-23T14:26:12.652Z,60.96
2022-10-23T14:28:41.818Z,61.63
2022-10-23T14:31:15.274Z,60.92
2022-10-23T14:33:43.491Z,60.45
2022-10-23T14:36:11.172Z,60.14
2022-10-23T14:38:38.567Z,60.20
2022-10-23T14:41:16.481Z,61.06
2022-10-23T14:43:43.825Z,59.78
2022-10-23T14:46:15.830Z,59.30
2022-10-23T14:48:46.129Z,59.99
2022-10-23T14:51:26.867Z,59.21
2022-10-23T14:53:58.830Z,59.67
2022-10-23T14:56:26.449Z,59.89
2022-10-23T14:58:54.620Z,60.14
2022-10-23T15:01:21.932Z,59.29
2022-10-23T15:03:54.705Z,59.17
2022-10-23T15:06:21.924Z,60.10
2022-10-23T15:08:54.971Z,59.42
2022-10-23T15:11:23.104Z,58.76
2022-10-23T15:13:50.686Z,58.98
2022-10-23T15:16:18.380Z,59.77
2022-10-23T15:18:45.784Z,58.97
2022-10-23T15:21:13.645Z,58.34
2022-10-23T15:23:43.108Z,58.96
2022-10-23T15:26:13.612Z,58.44
2022-10-23T15:28:40.770Z,58.76
2022-10-23T15:31:25.928Z,58.78
2022-10-23T15:33:53.166Z,58.37
2022-10-23T15:36:20.658Z,58.85
2022-10-23T15:38:47.820Z,58.32
2022-10-23T15:41:17.836Z,59.18
2022-10-23T15:43:45.230Z,58.11
2022-10-23T15:46:12.465Z,58.34
2022-10-23T15:48:39.712Z,58.15
2022-10-23T15:51:06.897Z,57.74
2022-10-23T15:53:34.098Z,59.14
2022-10-23T15:56:01.314Z,57.91
2022-10-23T15:58:28.551Z,57.54
2022-10-23T16:00:55.882Z,57.74
2022-10-23T16:03:23.074Z,56.64
2022-10-23T16:05:50.261Z,56.59
2022-10-23T16:08:17.518Z,55.97
2022-10-23T16:10:44.715Z,54.33
2022-10-23T16:13:11.990Z,54.46
2022-10-23T16:15:39.150Z,54.50
2022-10-23T16:18:06.623Z,52.40
2022-10-23T16:20:34.001Z,53.48
2022-10-23T16:23:01.259Z,53.60
2022-10-23T16:25:28.619Z,54.80
2022-10-23T16:27:58.908Z,54.17
2022-10-23T16:30:26.184Z,53.07
2022-10-23T16:32:54.853Z,53.20
2022-10-23T16:35:22.722Z,53.42
2022-10-23T16:38:01.703Z,54.32
2022-10-23T16:40:28.906Z,54.24
2022-10-23T16:43:14.469Z,56.29
2022-10-23T16:45:46.016Z,53.53
2022-10-23T16:48:13.827Z,55.04
2022-10-23T16:50:41.918Z,54.83
2022-10-23T16:53:09.150Z,55.58
2022-10-23T16:55:40.492Z,57.28
2022-10-23T16:58:07.728Z,57.18
2022-10-23T17:00:35.439Z,58.39
2022-10-23T17:03:04.160Z,57.00
2022-10-23T17:05:35.309Z,57.65
2022-10-23T17:08:02.586Z,56.17
2022-10-23T17:10:29.908Z,57.63
2022-10-23T17:12:57.087Z,58.53
2022-10-23T17:15:24.564Z,58.12
2022-10-23T17:17:51.892Z,58.15
2022-10-23T17:20:19.175Z,58.33
2022-10-23T17:22:46.341Z,56.56
2022-10-23T17:25:13.953Z,57.75
2022-10-23T17:27:42.780Z,59.40
2022-10-23T17:30:12.813Z,57.87
2022-10-23T17:32:40.301Z,58.63
2022-10-23T17:35:07.776Z,56.54
2022-10-23T17:37:35.098Z,57.07
2022-10-23T17:40:02.573Z,57.41
2022-10-23T17:42:30.005Z,58.28
2022-10-23T17:44:57.230Z,57.14
2022-10-23T17:47:24.535Z,57.37
2022-10-23T17:49:51.740Z,57.01
2022-10-23T17:52:19.019Z,56.95
2022-10-23T17:54:46.202Z,59.41
2022-10-23T17:57:13.499Z,58.51
2022-10-23T17:59:40.761Z,56.46
2022-10-23T18:02:12.957Z,59.24
2022-10-23T18:04:40.397Z,57.73
2022-10-23T18:07:07.844Z,59.18
2022-10-23T18:09:35.205Z,59.53
2022-10-23T18:12:02.419Z,57.66
2022-10-23T18:14:29.916Z,57.29
2022-10-23T18:16:57.252Z,58.45
2022-10-23T18:19:24.472Z,58.79
2022-10-23T18:21:51.924Z,60.08
2022-10-23T18:24:19.450Z,60.75
2022-10-23T18:26:48.092Z,60.95
2022-10-23T18:29:17.337Z,60.89
2022-10-23T18:31:45.660Z,60.94
2022-10-23T18:34:21.272Z,59.50
2022-10-23T18:36:51.403Z,61.24
2022-10-23T18:39:22.814Z,62.15
2022-10-23T18:41:53.441Z,58.58
2022-10-23T18:44:22.512Z,60.63
2022-10-23T18:46:50.622Z,61.27
2022-10-23T18:49:18.931Z,60.44
2022-10-23T18:51:46.195Z,60.83
2022-10-23T18:54:15.375Z,61.04
2022-10-23T18:56:43.881Z,59.34
2022-10-23T18:59:17.114Z,59.64
2022-10-23T19:01:44.642Z,61.09
2022-10-23T19:04:14.101Z,61.33
2022-10-23T19:06:42.082Z,60.56
2022-10-23T19:09:11.229Z,60.03
2022-10-23T19:11:38.632Z,62.01
2022-10-23T19:14:06.411Z,60.16
2022-10-23T19:16:39.171Z,61.53
2022-10-23T19:19:21.898Z,60.35
2022-10-23T19:21:50.091Z,60.04
2022-10-23T19:24:23.695Z,59.95
2022-10-23T19:26:51.118Z,59.78
2022-10-23T19:29:20.863Z,58.22
2022-10-23T19:31:49.475Z,58.10
2022-10-23T19:34:20.009Z,58.04
2022-10-23T19:36:48.262Z,59.21
2022-10-23T19:39:16.237Z,57.34
2022-10-23T19:41:44.221Z,57.34
2022-10-23T19:44:13.398Z,57.16
2022-10-23T19:46:40.739Z,57.10
2022-10-23T19:49:09.334Z,56.38
2022-10-23T19:51:37.161Z,57.44
2022-10-23T19:54:04.892Z,56.25
2022-10-23T19:56:32.335Z,57.79
2022-10-23T19:58:59.716Z,58.07
2022-10-23T20:01:27.192Z,60.75
2022-10-23T20:03:55.681Z,60.20
2022-10-23T20:06:29.183Z,61.21
2022-10-23T20:08:56.810Z,61.67
2022-10-23T20:11:28.061Z,60.17
2022-10-23T20:13:55.801Z,60.26
2022-10-23T20:16:25.719Z,60.47
2022-10-23T20:18:53.432Z,61.00
2022-10-23T20:21:20.814Z,60.08
2022-10-23T20:23:57.124Z,60.43
2022-10-23T20:26:27.172Z,60.17
2022-10-23T20:28:56.493Z,59.54
2022-10-23T20:31:25.326Z,61.37
2022-10-23T20:33:53.184Z,59.77
2022-10-23T20:36:28.612Z,60.85
2022-10-23T20:38:57.010Z,59.83
2022-10-23T20:41:27.063Z,60.61
2022-10-23T20:43:58.325Z,61.18
2022-10-23T20:46:26.420Z,60.43
2022-10-23T20:48:54.097Z,60.16
2022-10-23T20:51:23.245Z,59.94
2022-10-23T20:53:51.423Z,60.07
2022-10-23T20:56:29.912Z,61.32
2022-10-23T20:58:58.830Z,60.55
2022-10-23T21:01:26.638Z,60.53
2022-10-23T21:03:57.034Z,60.52
2022-10-23T21:06:26.160Z,60.75
2022-10-23T21:08:57.609Z,61.48
2022-10-23T21:11:25.663Z,59.52
2022-10-23T21:13:53.573Z,60.94
2022-10-23T21:16:26.128Z,58.33
2022-10-23T21:18:56.854Z,58.54
2022-10-23T21:21:25.068Z,57.91
2022-10-23T21:23:53.956Z,58.02
2022-10-23T21:26:22.712Z,55.87
2022-10-23T21:29:00.952Z,56.00
2022-10-23T21:31:38.777Z,56.84
2022-10-23T21:34:06.218Z,57.48
2022-10-23T21:36:39.777Z,56.15
2022-10-23T21:39:10.938Z,55.75
2022-10-23T21:41:38.195Z,56.39
2022-10-23T21:44:05.754Z,56.53
2022-10-23T21:46:34.665Z,57.31
2022-10-23T21:49:02.207Z,58.60
2022-10-23T21:51:35.680Z,58.56
2022-10-23T21:54:04.509Z,56.87
2022-10-23T21:56:46.842Z,57.01
2022-10-23T21:59:16.552Z,57.17
2022-10-23T22:01:45.613Z,57.47
2022-10-23T22:04:14.722Z,58.70
2022-10-23T22:06:43.390Z,57.60
2022-10-23T22:09:13.552Z,57.28
2022-10-23T22:11:40.832Z,63.44
2022-10-23T22:14:08.094Z,65.48
2022-10-23T22:16:35.304Z,59.68
2022-10-23T22:19:02.822Z,59.38
2022-10-23T22:21:30.977Z,58.54
2022-10-23T22:24:00.395Z,58.97
2022-10-23T22:26:37.280Z,58.28
2022-10-23T22:29:07.024Z,58.62
2022-10-23T22:31:35.964Z,58.72
2022-10-23T22:34:13.373Z,60.42
2022-10-23T22:36:52.889Z,60.36
2022-10-23T22:39:20.207Z,59.13
2022-10-23T22:41:50.965Z,60.10
2022-10-23T22:44:21.447Z,59.65
2022-10-23T22:46:48.827Z,60.31
2022-10-23T22:49:16.488Z,62.46
2022-10-23T22:51:43.700Z,62.03
2022-10-23T22:54:11.026Z,61.96
2022-10-23T22:56:38.232Z,61.62
2022-10-23T22:59:05.739Z,61.32
2022-10-23T23:01:36.412Z,61.57
2022-10-23T23:04:14.077Z,62.42
2022-10-23T23:06:51.067Z,62.58
2022-10-23T23:09:18.788Z,63.17
2022-10-23T23:11:52.062Z,62.68
2022-10-23T23:14:23.639Z,62.50
2022-10-23T23:16:52.827Z,63.56
2022-10-23T23:19:22.467Z,62.30
2022-10-23T23:21:50.265Z,62.90
2022-10-23T23:24:17.508Z,63.58
2022-10-23T23:26:44.749Z,63.39
2022-10-23T23:29:12.271Z,65.10
2022-10-23T23:31:39.689Z,64.42
2022-10-23T23:34:07.003Z,64.45
2022-10-23T23:36:34.913Z,63.67
2022-10-23T23:41:35.011Z,64.54
2022-10-23T23:44:02.323Z,65.66
2022-10-23T23:46:29.502Z,65.76
2022-10-23T23:48:56.825Z,65.83
2022-10-23T23:51:25.272Z,65.36
2022-10-23T23:53:52.707Z,65.36
2022-10-23T23:56:20.736Z,65.43
2022-10-23T23:58:48.379Z,66.15
